Skip Navigation Links
NOAA logo - Click to go to the NOAA homepage
NOAA's National Weather Service
Alaska Aviation Weather Unit
  NWS logo - Click to go to the NWS homepage
Left Navbar Graphic     02 AKDT = 10 GMT

   
NOAA is celebrating 200 years of science, service, and stewardship. Visit the NOAA 200th celebration Web site to learn more.
USA.gov is the U.S. Government's official Web portal to all Federal, state and local government Web resources and services.
Facebook
NWS on Facebook

AAWU Home :: Display TAF Add Bookmark
METAR PAWS 270416Z AUTO 07009KT 10SM CLR M01/M13 A2968 RMK AO1=

METAR PAWS 270436Z AUTO 08011G16KT 10SM CLR M01/M13 A2968 RMK AO1=

METAR PAWS 270456Z AUTO 07011G17KT 10SM CLR M02/M13 A2968 RMK AO1=

METAR PAWS 270516Z AUTO 07011G16KT 10SM CLR M02/M13 A2967 RMK AO1=

METAR PAWS 270536Z AUTO 07010KT 10SM CLR M02/M13 A2967 RMK AO1=

METAR PAWS 270556Z AUTO 07011KT 10SM CLR M02/M13 A2967 RMK AO1 10010
     21020 57007=

METAR PAWS 270616Z AUTO 07010KT 10SM CLR M02/M13 A2967 RMK AO1=

METAR PAWS 270636Z AUTO 06012G15KT 10SM CLR M03/M13 A2967 RMK AO1=

METAR PAWS 270656Z AUTO 07012G18KT 10SM CLR M03/M14 A2966 RMK AO1=

PAWS 270716Z AUTO 07010G19KT 10SM CLR M03/M14 A2966 RMK AO1=

METAR PAWS 270736Z AUTO 07011G18KT 10SM CLR M03/M14 A2966 RMK AO1=

METAR PAWS 270756Z AUTO 06010G15KT 10SM CLR M03/M13 A2965 RMK AO1=

METAR PAWS 270816Z AUTO 07011G21KT 10SM CLR M03/M13 A2965 RMK AO1=

METAR PAWS 270836Z AUTO 07010G17KT 10SM CLR M03/M13 A2964 RMK AO1=

METAR PAWS 270916Z AUTO 07013G17KT 10SM CLR M03/M13 A2963 RMK AO1=

METAR PAWS 270936Z AUTO 08012G17KT 10SM CLR M04/M13 A2963 RMK AO1=

METAR PAWS 270956Z AUTO 07012G17KT 10SM CLR M04/M13 A2963 RMK AO1=

METAR PAWS 271016Z AUTO 07014G18KT 10SM CLR M04/M13 A2963 RMK AO1=

METAR PAWS 271036Z AUTO 07013G18KT 10SM CLR M04/M13 A2962 RMK AO1=


NOAA's National Weather Service
Alaska Aviation Weather Unit
6930 Sand Lake Road
Anchorage, AK 99502-1845
Disclaimer
Credits
Glossary
Privacy Policy
About Us
Career Opportunities
Contact AAWU Internet Services Site last modified: April, 17th 2012